Time;durP1;ratioP1;P1;durP2;ratioP2;P2;SDS_P1;SDS_P2;PMS_P1;PMS_P2;Temp;Humidity;BMP_temperature;BMP_pressure;BME280_temperature;BME280_humidity;BME280_pressure;Samples;Min_cycle;Max_cycle;Signal;HPM_P1;HPM_P2
2022/05/14 00:01:02;;;;;;;7.97;3.30;;;10.10;96.90;;;;;;5027180;28;20338;-69
2022/05/14 00:03:32;;;;;;;9.90;3.00;;;10.10;96.80;;;;;;4998234;28;20045;-69
2022/05/14 00:06:05;;;;;;;6.43;3.28;;;10.10;96.90;;;;;;5017550;28;20030;-69
2022/05/14 00:08:31;;;;;;;6.57;3.00;;;10.00;96.90;;;;;;5016514;28;20029;-69
2022/05/14 00:13:43;;;;;;;11.10;2.92;;;10.00;97.00;;;;;;5019550;28;20389;-69
2022/05/14 00:16:10;;;;;;;7.40;3.30;;;9.90;97.30;;;;;;5020839;28;20026;-69
2022/05/14 00:18:36;;;;;;;6.38;3.38;;;9.90;97.20;;;;;;5020107;28;20091;-69
2022/05/14 00:21:02;;;;;;;9.95;3.10;;;9.90;97.40;;;;;;4998332;28;20025;-69
2022/05/14 00:23:28;;;;;;;12.00;3.10;;;9.80;97.50;;;;;;5016573;28;20152;-68
2022/05/14 00:25:54;;;;;;;7.78;3.20;;;9.80;97.60;;;;;;5016682;28;20083;-69
2022/05/14 00:28:20;;;;;;;8.40;3.17;;;9.80;97.70;;;;;;5016956;28;20026;-69
2022/05/14 00:30:46;;;;;;;15.93;3.40;;;9.80;97.40;;;;;;5015418;28;20423;-69
2022/05/14 00:33:12;;;;;;;6.65;3.13;;;9.80;97.30;;;;;;5017907;28;20151;-68
2022/05/14 00:35:39;;;;;;;12.40;3.90;;;9.70;97.40;;;;;;5016603;28;20430;-68
2022/05/14 00:38:11;;;;;;;11.35;3.85;;;9.70;97.30;;;;;;5016064;28;20029;-69
2022/05/14 00:40:47;;;;;;;7.90;3.33;;;9.60;97.40;;;;;;5016569;28;20053;-68
2022/05/14 00:43:14;;;;;;;7.38;3.70;;;9.60;97.60;;;;;;4985218;28;20079;-69
2022/05/14 00:45:45;;;;;;;9.95;3.40;;;9.60;97.60;;;;;;5015795;28;20434;-68
2022/05/14 00:48:12;;;;;;;9.85;3.88;;;9.60;97.90;;;;;;5017988;28;20071;-68
2022/05/14 00:51:00;;;;;;;11.18;3.40;;;9.60;97.80;;;;;;5013789;28;20038;-68
2022/05/14 00:53:38;;;;;;;8.02;3.30;;;9.60;97.40;;;;;;5016168;28;20092;-68
2022/05/14 00:56:08;;;;;;;8.32;3.13;;;9.60;97.90;;;;;;5015581;28;20035;-68
2022/05/14 00:59:04;;;;;;;10.60;3.75;;;9.60;98.00;;;;;;5007870;28;20052;-68
2022/05/14 01:01:30;;;;;;;7.43;3.03;;;9.50;97.90;;;;;;5015080;28;20053;-68
2022/05/14 01:03:57;;;;;;;6.50;3.13;;;9.50;97.80;;;;;;4996741;28;20036;-68
2022/05/14 01:06:25;;;;;;;8.60;2.90;;;9.50;97.60;;;;;;5017049;28;20009;-69
2022/05/14 01:08:50;;;;;;;5.28;2.58;;;9.40;97.50;;;;;;5015500;28;20115;-68
2022/05/14 01:11:17;;;;;;;8.45;3.15;;;9.50;97.60;;;;;;5015468;28;20472;-69
2022/05/14 01:13:43;;;;;;;8.27;3.47;;;9.40;97.40;;;;;;5019467;28;20112;-68
2022/05/14 01:16:08;;;;;;;9.85;3.50;;;9.40;97.20;;;;;;5016187;28;20026;-68
2022/05/14 01:18:36;;;;;;;9.63;3.38;;;9.30;96.80;;;;;;5019827;28;20057;-68
2022/05/14 01:21:04;;;;;;;7.70;3.10;;;9.30;96.50;;;;;;5015344;28;20022;-68
2022/05/14 01:26:44;;;;;;;12.13;3.60;;;9.20;96.20;;;;;;5003465;28;20537;-68
2022/05/14 01:29:22;;;;;;;11.15;3.30;;;9.20;96.20;;;;;;5016891;28;20036;-68
2022/05/14 01:31:49;;;;;;;10.00;3.38;;;9.20;96.30;;;;;;5015984;28;20053;-69
2022/05/14 01:34:21;;;;;;;10.38;4.03;;;9.20;96.20;;;;;;5017028;28;20667;-68
2022/05/14 01:36:47;;;;;;;10.13;3.35;;;9.10;96.10;;;;;;4996981;28;20116;-68
2022/05/14 01:39:14;;;;;;;9.02;3.20;;;9.10;96.20;;;;;;5015757;28;20606;-68
2022/05/14 01:41:39;;;;;;;12.93;3.47;;;9.00;96.10;;;;;;5014568;28;20030;-68
2022/05/14 01:44:06;;;;;;;8.65;3.10;;;9.00;95.90;;;;;;5014868;28;20114;-68
2022/05/14 01:46:34;;;;;;;10.77;3.45;;;9.00;96.20;;;;;;5014439;28;20057;-69
2022/05/14 01:48:59;;;;;;;9.55;3.20;;;9.00;96.40;;;;;;5013752;28;20028;-68
2022/05/14 01:51:25;;;;;;;10.75;3.38;;;9.00;96.10;;;;;;5013865;28;20074;-68
2022/05/14 01:53:52;;;;;;;10.20;3.45;;;9.00;96.10;;;;;;5013821;28;20034;-69
2022/05/14 01:56:20;;;;;;;7.15;2.90;;;9.00;95.90;;;;;;5012511;28;20166;-68
2022/05/14 01:58:47;;;;;;;9.82;3.40;;;9.00;95.90;;;;;;5022906;28;20297;-69
2022/05/14 02:01:25;;;;;;;9.52;2.92;;;9.00;96.20;;;;;;5040761;28;20033;-68
2022/05/14 02:04:05;;;;;;;9.80;3.08;;;9.10;96.80;;;;;;5043379;28;20031;-68
2022/05/14 02:06:31;;;;;;;8.48;3.40;;;9.20;96.80;;;;;;5029461;28;20087;-68
2022/05/14 02:09:01;;;;;;;11.98;3.17;;;9.20;96.90;;;;;;5031424;28;20033;-69
2022/05/14 02:11:28;;;;;;;9.50;3.67;;;9.10;96.60;;;;;;5030798;28;20080;-69
2022/05/14 02:13:54;;;;;;;8.55;3.47;;;9.10;96.40;;;;;;5033096;28;20033;-68
2022/05/14 02:16:20;;;;;;;9.18;3.05;;;9.10;96.40;;;;;;5029091;28;20879;-69
2022/05/14 02:18:46;;;;;;;9.27;3.10;;;9.10;96.30;;;;;;5031063;28;21510;-69
2022/05/14 02:21:13;;;;;;;12.07;3.58;;;9.10;96.40;;;;;;5030049;28;20040;-68
2022/05/14 02:23:39;;;;;;;9.57;3.40;;;9.00;96.50;;;;;;5030604;28;20129;-69
2022/05/14 02:26:06;;;;;;;9.10;3.25;;;9.10;96.60;;;;;;5031302;28;20056;-68
2022/05/14 02:28:33;;;;;;;10.82;3.40;;;9.00;96.80;;;;;;5029905;28;20048;-68
2022/05/14 02:30:59;;;;;;;8.48;3.67;;;9.00;96.50;;;;;;5029805;28;20106;-68
2022/05/14 02:33:25;;;;;;;8.13;3.33;;;8.90;96.20;;;;;;5030083;28;20036;-68
2022/05/14 02:35:50;;;;;;;10.23;3.35;;;8.90;95.90;;;;;;5027693;28;20041;-69
2022/05/14 02:38:16;;;;;;;7.80;3.60;;;8.90;96.20;;;;;;5031210;28;20033;-68
2022/05/14 02:40:42;;;;;;;7.65;3.25;;;8.80;96.40;;;;;;5029209;28;20029;-68
2022/05/14 02:43:09;;;;;;;6.35;3.05;;;8.80;96.40;;;;;;5029512;28;20032;-68
2022/05/14 02:45:36;;;;;;;10.90;3.55;;;8.70;96.20;;;;;;5028542;28;20426;-68
2022/05/14 02:48:02;;;;;;;10.27;3.20;;;8.70;96.20;;;;;;5029235;28;20159;-68
2022/05/14 02:50:27;;;;;;;7.78;3.05;;;8.60;95.80;;;;;;5029304;28;20060;-68
2022/05/14 02:52:55;;;;;;;9.65;3.10;;;8.60;96.10;;;;;;5031517;28;21656;-68
2022/05/14 02:55:22;;;;;;;9.02;2.90;;;8.60;96.30;;;;;;5037854;28;20409;-68
2022/05/14 02:57:47;;;;;;;10.05;3.25;;;8.60;96.40;;;;;;5033610;28;20064;-68
2022/05/14 03:00:16;;;;;;;9.50;2.85;;;8.60;96.80;;;;;;5028216;28;20116;-69
2022/05/14 03:02:45;;;;;;;8.02;3.20;;;8.60;97.10;;;;;;5030203;28;20056;-68
2022/05/14 03:05:17;;;;;;;8.68;3.25;;;8.60;97.40;;;;;;5029124;28;20040;-67
2022/05/14 03:07:43;;;;;;;8.73;2.47;;;8.70;97.50;;;;;;5033170;28;20542;-68
2022/05/14 03:10:09;;;;;;;10.30;2.72;;;8.70;97.50;;;;;;5028737;28;20107;-69
2022/05/14 03:12:35;;;;;;;7.78;2.42;;;8.70;97.70;;;;;;5030133;28;20028;-67
2022/05/14 03:15:01;;;;;;;8.18;2.50;;;8.70;97.60;;;;;;5032474;28;20025;-68
2022/05/14 03:17:27;;;;;;;7.72;2.67;;;8.60;97.50;;;;;;5027622;28;20369;-67
2022/05/14 03:19:53;;;;;;;8.65;2.97;;;8.60;97.30;;;;;;5042287;28;20036;-67
2022/05/14 03:22:19;;;;;;;7.18;2.63;;;8.60;97.40;;;;;;5044975;28;20064;-68
2022/05/14 03:24:45;;;;;;;7.22;2.40;;;8.60;97.70;;;;;;5030399;28;20044;-68
2022/05/14 03:27:12;;;;;;;6.18;2.50;;;8.50;97.70;;;;;;5029466;28;21151;-68
2022/05/14 03:29:39;;;;;;;7.45;2.42;;;8.40;97.80;;;;;;5030657;28;20124;-67
2022/05/14 03:32:05;;;;;;;8.40;3.22;;;8.40;97.90;;;;;;5027275;28;20461;-68
2022/05/14 03:34:32;;;;;;;9.68;2.70;;;8.40;97.80;;;;;;5026049;28;20563;-68
2022/05/14 03:36:58;;;;;;;10.48;2.72;;;8.40;97.80;;;;;;5026508;28;20033;-68
2022/05/14 03:39:24;;;;;;;6.70;3.22;;;8.40;98.00;;;;;;5029065;28;21512;-68
2022/05/14 03:41:50;;;;;;;8.68;3.30;;;8.30;97.90;;;;;;5029060;28;20749;-68
2022/05/14 03:44:17;;;;;;;6.50;2.60;;;8.40;97.70;;;;;;5031497;28;20167;-69
2022/05/14 03:46:45;;;;;;;9.55;3.05;;;8.40;97.10;;;;;;5012996;28;22338;-69
2022/05/14 03:49:11;;;;;;;11.57;3.22;;;8.30;96.80;;;;;;5026177;28;20151;-69
2022/05/14 03:51:39;;;;;;;7.35;2.70;;;8.30;96.40;;;;;;5027239;28;20025;-69
2022/05/14 03:54:08;;;;;;;7.03;2.80;;;8.30;96.60;;;;;;5028328;28;20442;-68
2022/05/14 03:56:34;;;;;;;9.55;2.80;;;8.20;96.70;;;;;;5028524;28;20041;-68
2022/05/14 03:58:59;;;;;;;9.45;3.00;;;8.20;97.10;;;;;;5039217;28;20029;-68
2022/05/14 04:01:25;;;;;;;7.10;2.72;;;8.30;97.00;;;;;;5026681;28;20152;-68
2022/05/14 04:03:53;;;;;;;9.93;3.35;;;8.30;97.20;;;;;;5013685;28;20083;-69
2022/05/14 04:06:20;;;;;;;4.90;2.75;;;8.30;97.70;;;;;;5031567;28;20028;-68
2022/05/14 04:08:45;;;;;;;11.23;2.97;;;8.30;97.70;;;;;;5041763;28;20021;-69
2022/05/14 04:11:14;;;;;;;9.27;2.55;;;8.40;97.60;;;;;;5057964;28;20048;-69
2022/05/14 04:13:43;;;;;;;7.38;3.00;;;8.40;97.40;;;;;;5051588;28;20113;-68
2022/05/14 04:16:09;;;;;;;5.40;2.88;;;8.30;97.50;;;;;;5030885;28;20025;-68
2022/05/14 04:18:38;;;;;;;6.65;2.38;;;8.20;97.40;;;;;;5030438;28;20646;-68
2022/05/14 04:21:04;;;;;;;10.30;2.80;;;8.20;96.90;;;;;;5031876;28;20087;-68
2022/05/14 04:23:30;;;;;;;9.27;2.83;;;8.20;97.10;;;;;;5065409;28;20401;-69
2022/05/14 04:25:57;;;;;;;7.30;2.55;;;8.30;97.50;;;;;;5047705;28;20122;-68
2022/05/14 04:28:24;;;;;;;7.88;2.88;;;8.30;97.60;;;;;;5033326;28;20029;-68
2022/05/14 04:30:51;;;;;;;7.80;2.38;;;8.40;97.60;;;;;;5033884;28;20033;-68
2022/05/14 04:33:18;;;;;;;6.15;2.63;;;8.40;97.60;;;;;;5037830;28;20044;-68
2022/05/14 04:35:44;;;;;;;12.38;2.70;;;8.40;97.60;;;;;;5044160;28;20028;-68
2022/05/14 04:38:10;;;;;;;8.23;2.53;;;8.50;97.70;;;;;;5059441;28;20041;-68
2022/05/14 04:40:36;;;;;;;5.80;2.75;;;8.50;97.70;;;;;;5031809;28;20033;-68
2022/05/14 04:43:06;;;;;;;5.22;2.25;;;8.50;97.80;;;;;;5031510;28;20129;-68
2022/05/14 04:45:34;;;;;;;7.80;2.67;;;8.50;97.80;;;;;;5032564;28;20129;-68
2022/05/14 04:48:03;;;;;;;7.63;2.50;;;8.50;97.80;;;;;;5034250;28;20394;-68
2022/05/14 04:50:28;;;;;;;9.00;2.50;;;8.50;97.80;;;;;;5031621;28;20045;-68
2022/05/14 04:52:54;;;;;;;6.28;2.35;;;8.50;97.40;;;;;;5033824;28;20420;-68
2022/05/14 04:55:20;;;;;;;6.63;2.10;;;8.60;97.50;;;;;;5030499;28;20036;-68
2022/05/14 04:57:45;;;;;;;7.40;2.35;;;8.60;97.70;;;;;;5024298;28;20095;-69
2022/05/14 05:00:16;;;;;;;7.82;2.60;;;8.60;97.80;;;;;;5051073;28;20319;-69
2022/05/14 05:05:29;;;;;;;8.43;2.30;;;8.70;97.50;;;;;;5062840;28;20039;-69
2022/05/14 05:07:55;;;;;;;7.38;2.10;;;8.70;97.40;;;;;;5040228;28;20342;-69
2022/05/14 05:10:21;;;;;;;7.40;2.17;;;8.70;97.60;;;;;;5030166;28;20025;-69
2022/05/14 05:12:46;;;;;;;7.30;2.10;;;8.70;97.50;;;;;;5032722;28;20428;-69
2022/05/14 05:15:12;;;;;;;6.63;2.45;;;8.90;97.80;;;;;;5038305;28;20037;-69
2022/05/14 05:17:38;;;;;;;5.40;2.17;;;9.00;97.80;;;;;;5031924;28;20021;-69
2022/05/14 05:20:05;;;;;;;5.10;2.20;;;9.20;97.80;;;;;;5030887;28;20151;-69
2022/05/14 05:22:31;;;;;;;5.93;2.22;;;9.40;98.00;;;;;;5031155;28;20057;-69
2022/05/14 05:24:57;;;;;;;7.22;2.05;;;9.70;98.00;;;;;;5032823;28;20048;-69
2022/05/14 05:27:23;;;;;;;6.70;2.13;;;10.00;98.00;;;;;;5029878;28;20392;-69
2022/05/14 05:29:49;;;;;;;8.52;2.08;;;10.30;98.00;;;;;;5036418;28;20320;-69
2022/05/14 05:32:15;;;;;;;7.00;2.20;;;10.60;98.00;;;;;;5022809;28;20036;-69
2022/05/14 05:34:41;;;;;;;6.18;1.88;;;10.80;98.00;;;;;;5028680;28;20040;-69
2022/05/14 05:37:12;;;;;;;4.78;1.58;;;11.10;98.00;;;;;;5014525;28;20392;-69
2022/05/14 05:39:38;;;;;;;5.57;1.70;;;11.40;98.00;;;;;;5030150;28;20034;-69
2022/05/14 05:42:04;;;;;;;5.85;1.88;;;11.70;98.00;;;;;;5037134;28;20497;-69
2022/05/14 05:44:29;;;;;;;4.70;1.63;;;12.00;98.00;;;;;;5030219;28;20120;-68
2022/05/14 05:46:55;;;;;;;6.63;1.67;;;12.40;98.00;;;;;;5028418;28;20029;-69
2022/05/14 05:49:21;;;;;;;5.55;1.60;;;12.80;97.40;;;;;;5034083;28;20065;-69
2022/05/14 05:51:47;;;;;;;5.70;1.50;;;13.30;97.30;;;;;;5028129;28;20057;-69
2022/05/14 05:56:59;;;;;;;4.47;1.80;;;14.30;95.80;;;;;;5033372;28;20090;-69
2022/05/14 05:59:28;;;;;;;6.05;2.72;;;14.90;94.50;;;;;;5040221;28;20028;-69
2022/05/14 06:01:54;;;;;;;4.25;1.90;;;15.20;91.20;;;;;;5030852;28;20172;-68
2022/05/14 06:04:21;;;;;;;6.32;1.75;;;15.60;90.70;;;;;;5034117;28;20028;-68
2022/05/14 06:06:47;;;;;;;7.68;1.73;;;15.70;89.20;;;;;;5053291;28;20025;-68
2022/05/14 06:09:26;;;;;;;5.75;1.30;;;15.80;86.80;;;;;;5066853;28;20036;-68
2022/05/14 06:11:52;;;;;;;6.25;1.83;;;15.80;87.40;;;;;;5055605;28;20379;-68
2022/05/14 06:14:18;;;;;;;7.43;1.75;;;15.90;85.10;;;;;;5052852;28;20163;-67
2022/05/14 06:16:44;;;;;;;5.43;1.40;;;15.90;82.50;;;;;;5055451;28;20032;-68
2022/05/14 06:19:10;;;;;;;5.25;2.00;;;16.00;83.30;;;;;;5061097;28;20078;-68
2022/05/14 06:21:37;;;;;;;6.57;2.05;;;16.10;83.90;;;;;;5061973;28;20322;-68
2022/05/14 06:24:05;;;;;;;5.40;1.83;;;16.00;83.90;;;;;;5052631;28;20033;-68
2022/05/14 06:26:30;;;;;;;8.77;2.17;;;15.90;84.70;;;;;;5047794;28;20052;-68
2022/05/14 06:28:56;;;;;;;5.20;1.85;;;15.60;84.30;;;;;;5048955;28;20055;-68
2022/05/14 06:31:22;;;;;;;7.55;2.10;;;15.40;83.50;;;;;;5052702;28;20072;-68
2022/05/14 06:33:48;;;;;;;6.53;1.83;;;15.20;83.00;;;;;;5051441;28;20033;-68
2022/05/14 06:36:15;;;;;;;6.22;1.60;;;15.10;82.80;;;;;;5052949;28;20421;-68
2022/05/14 06:38:41;;;;;;;5.32;1.85;;;15.20;82.30;;;;;;5053158;28;20029;-68
2022/05/14 06:41:09;;;;;;;5.72;1.90;;;15.30;82.20;;;;;;5052904;28;20024;-68
2022/05/14 06:43:35;;;;;;;5.93;1.92;;;15.40;82.80;;;;;;5051430;28;20029;-68
2022/05/14 06:46:04;;;;;;;4.32;1.60;;;15.40;83.30;;;;;;5054132;28;20104;-68
2022/05/14 06:48:30;;;;;;;4.28;1.48;;;15.40;82.70;;;;;;5052017;28;20111;-68
2022/05/14 06:51:00;;;;;;;6.57;1.90;;;15.40;83.40;;;;;;5037591;28;20148;-68
2022/05/14 06:53:27;;;;;;;5.10;1.88;;;15.50;83.20;;;;;;5052103;28;20251;-68
2022/05/14 06:55:55;;;;;;;9.02;2.28;;;15.60;83.10;;;;;;4964810;28;20021;-67
2022/05/14 06:58:26;;;;;;;5.43;1.70;;;15.60;84.30;;;;;;5049783;28;20036;-69
2022/05/14 07:00:52;;;;;;;6.72;1.95;;;15.70;82.30;;;;;;5052819;28;20037;-68
2022/05/14 07:08:47;;;;;;;8.63;2.25;;;15.80;82.80;;;;;;5055109;28;20047;-68
2022/05/14 07:11:13;;;;;;;5.43;1.90;;;15.90;82.00;;;;;;5053198;28;20021;-68
2022/05/14 07:13:39;;;;;;;6.20;1.92;;;16.00;82.60;;;;;;5052703;28;20464;-68
2022/05/14 07:16:04;;;;;;;6.05;1.95;;;16.00;82.20;;;;;;5052554;28;20034;-69
2022/05/14 07:18:33;;;;;;;6.78;2.30;;;16.10;82.90;;;;;;5052692;28;20032;-68
2022/05/14 07:21:00;;;;;;;5.80;1.90;;;16.20;86.70;;;;;;5051566;28;20033;-68
2022/05/14 07:23:25;;;;;;;7.00;2.08;;;16.30;87.00;;;;;;4965484;28;20048;-68
2022/05/14 07:25:54;;;;;;;5.82;2.30;;;16.40;86.90;;;;;;5053892;28;20033;-68
2022/05/14 07:28:20;;;;;;;7.82;2.25;;;16.40;87.10;;;;;;5048062;28;20421;-68
2022/05/14 07:30:45;;;;;;;7.97;2.30;;;16.60;85.80;;;;;;5058175;28;20035;-68
2022/05/14 07:33:12;;;;;;;5.97;2.10;;;16.90;84.60;;;;;;5051535;28;20130;-68
2022/05/14 07:35:38;;;;;;;8.93;3.60;;;17.10;84.60;;;;;;5073535;28;20029;-68
2022/05/14 07:38:06;;;;;;;5.75;1.75;;;17.30;83.90;;;;;;5058573;28;20116;-68
2022/05/14 07:40:35;;;;;;;6.80;2.25;;;18.00;82.50;;;;;;5053990;28;20033;-68
2022/05/14 07:43:08;;;;;;;10.50;2.28;;;18.90;79.60;;;;;;5035508;28;20029;-67
2022/05/14 07:45:48;;;;;;;5.17;2.17;;;19.80;77.60;;;;;;5055490;28;20429;-67
2022/05/14 07:48:17;;;;;;;9.05;2.05;;;20.80;75.60;;;;;;5057272;28;20557;-67
2022/05/14 07:50:45;;;;;;;5.78;1.73;;;21.40;72.60;;;;;;5057707;28;20029;-67
2022/05/14 07:53:10;;;;;;;6.55;1.75;;;21.90;71.30;;;;;;5058126;28;20033;-67
2022/05/14 07:55:37;;;;;;;6.70;1.70;;;22.40;71.10;;;;;;5059020;28;20363;-69
2022/05/14 07:58:04;;;;;;;7.32;1.85;;;22.90;69.30;;;;;;5057328;28;20025;-69
2022/05/14 08:00:30;;;;;;;5.25;2.10;;;23.20;68.00;;;;;;5057938;28;20025;-68
2022/05/14 08:02:57;;;;;;;6.15;2.05;;;23.00;68.30;;;;;;5057784;28;20032;-69
2022/05/14 08:05:22;;;;;;;5.53;1.60;;;23.10;68.40;;;;;;5057371;28;20043;-68
2022/05/14 08:07:49;;;;;;;5.85;1.92;;;23.80;68.60;;;;;;5057863;28;20401;-68
2022/05/14 08:10:16;;;;;;;6.13;1.67;;;24.50;65.30;;;;;;5058671;28;20295;-68
2022/05/14 08:12:49;;;;;;;7.75;1.95;;;24.30;64.10;;;;;;5057664;28;20132;-69
2022/05/14 08:15:15;;;;;;;;;;;23.90;64.30;;;;;;5048501;28;20394;-68
2022/05/14 08:17:41;;;;;;;6.75;1.50;;;23.30;64.10;;;;;;5058520;28;19905;-68
2022/05/14 08:20:08;;;;;;;7.75;1.60;;;23.50;63.80;;;;;;5056111;28;20392;-68
2022/05/14 08:25:19;;;;;;;;;;;24.90;60.10;;;;;;5057748;28;20124;-68
2022/05/14 08:27:44;;;;;;;3.95;1.50;;;24.50;61.00;;;;;;5058238;28;20264;-68
2022/05/14 08:30:28;;;;;;;5.28;1.33;;;24.60;59.50;;;;;;5056779;28;20099;-68
2022/05/14 08:32:55;;;;;;;5.10;1.10;;;25.30;60.10;;;;;;5057482;28;20025;-68
2022/05/14 08:35:22;;;;;;;6.03;1.30;;;24.90;59.40;;;;;;5056361;28;20487;-68
2022/05/14 08:37:50;;;;;;;3.75;1.25;;;24.70;61.10;;;;;;5058432;28;20098;-68
2022/05/14 08:40:26;;;;;;;9.25;1.60;;;24.80;60.90;;;;;;5055673;28;20056;-68
2022/05/14 08:42:57;;;;;;;4.68;1.48;;;24.50;61.10;;;;;;5043230;28;20029;-68
2022/05/14 08:45:26;;;;;;;7.75;1.60;;;24.90;60.00;;;;;;5056387;28;20041;-68
2022/05/14 08:47:56;;;;;;;5.18;1.40;;;24.90;59.60;;;;;;5058127;28;20418;-68
2022/05/14 08:50:32;;;;;;;5.85;1.30;;;25.20;59.00;;;;;;5056005;28;20025;-69
2022/05/14 08:53:03;;;;;;;7.85;1.85;;;25.70;58.60;;;;;;5050309;28;20033;-68
2022/05/14 08:56:08;;;;;;;7.53;1.40;;;24.30;61.90;;;;;;5056878;28;20029;-69
2022/05/14 08:58:46;;;;;;;6.88;1.30;;;22.60;66.10;;;;;;5029165;28;20039;-68
2022/05/14 09:01:18;;;;;;;6.28;1.52;;;22.60;64.90;;;;;;5056736;28;20037;-69
2022/05/14 09:03:45;;;;;;;6.55;1.80;;;23.10;63.50;;;;;;5055650;28;20029;-68
2022/05/14 09:06:10;;;;;;;7.07;1.98;;;23.40;64.80;;;;;;5056626;28;20422;-68
2022/05/14 09:08:36;;;;;;;5.20;1.60;;;23.70;60.60;;;;;;5057772;28;20028;-68
2022/05/14 09:11:16;;;;;;;5.22;1.83;;;23.80;61.20;;;;;;5056468;28;20021;-68
2022/05/14 09:13:50;;;;;;;3.63;1.50;;;24.10;60.50;;;;;;5055521;28;20017;-68
2022/05/14 09:16:42;;;;;;;5.57;1.40;;;24.30;61.00;;;;;;5056484;28;20017;-68
2022/05/14 09:19:18;;;;;;;8.20;1.75;;;24.20;62.10;;;;;;5051020;28;20029;-68
2022/05/14 09:21:57;;;;;;;7.32;1.77;;;24.20;61.00;;;;;;5042276;28;20028;-68
2022/05/14 09:24:29;;;;;;;5.70;1.50;;;24.50;62.70;;;;;;5065509;28;20035;-68
2022/05/14 09:27:11;;;;;;;6.95;1.77;;;24.60;61.10;;;;;;5039647;28;20310;-68
2022/05/14 09:29:42;;;;;;;7.90;1.85;;;25.00;59.60;;;;;;5056317;28;20414;-68
2022/05/14 09:32:30;;;;;;;6.43;1.60;;;25.30;60.40;;;;;;5057038;28;20422;-68
2022/05/14 09:35:13;;;;;;;6.45;1.65;;;25.10;59.60;;;;;;5053745;28;20025;-68
2022/05/14 09:37:41;;;;;;;5.32;1.77;;;25.40;59.70;;;;;;5056324;28;20021;-68
2022/05/14 09:40:28;;;;;;;6.68;1.70;;;25.50;59.50;;;;;;5054257;28;20062;-68
2022/05/14 09:43:14;;;;;;;6.82;1.90;;;25.40;59.60;;;;;;5056010;28;20299;-68
2022/05/14 09:45:56;;;;;;;8.02;1.63;;;25.10;60.70;;;;;;5041855;28;20041;-68
2022/05/14 09:48:29;;;;;;;5.03;1.70;;;25.20;59.70;;;;;;5055961;28;20030;-68
2022/05/14 09:51:00;;;;;;;5.18;1.85;;;25.90;59.40;;;;;;5055320;28;20021;-68
2022/05/14 09:53:39;;;;;;;7.43;1.80;;;26.10;58.90;;;;;;5055315;28;20471;-67
2022/05/14 09:56:14;;;;;;;6.90;1.80;;;26.30;60.70;;;;;;5055185;28;20162;-68
2022/05/14 09:58:52;;;;;;;7.28;1.95;;;26.30;59.10;;;;;;5055654;28;20445;-68
2022/05/14 10:01:46;;;;;;;6.82;1.98;;;26.10;59.00;;;;;;5056440;28;20083;-67
2022/05/14 10:04:32;;;;;;;5.57;2.00;;;25.30;61.10;;;;;;5053387;28;20337;-67
2022/05/14 10:07:12;;;;;;;7.15;2.03;;;25.30;60.20;;;;;;5053450;28;20116;-68
2022/05/14 10:09:46;;;;;;;5.35;2.00;;;26.00;60.90;;;;;;5054778;28;20040;-68
2022/05/14 10:12:18;;;;;;;7.57;2.13;;;26.30;61.00;;;;;;5056504;28;20024;-68
2022/05/14 10:14:57;;;;;;;7.70;1.92;;;26.50;61.40;;;;;;5054361;28;20060;-68
2022/05/14 10:17:46;;;;;;;8.02;2.47;;;26.90;60.30;;;;;;5055678;28;20021;-68
2022/05/14 10:20:29;;;;;;;7.03;1.90;;;26.60;59.40;;;;;;5053652;28;20299;-68
2022/05/14 10:26:45;;;;;;;6.10;2.25;;;25.80;62.20;;;;;;5055268;28;20104;-67
2022/05/14 10:29:14;;;;;;;6.30;1.70;;;25.80;60.10;;;;;;5055109;28;20025;-67
2022/05/14 10:32:01;;;;;;;7.22;2.20;;;26.20;59.50;;;;;;5055193;28;20021;-68
2022/05/14 10:35:11;;;;;;;6.68;2.47;;;26.00;59.70;;;;;;5053415;28;20029;-68
2022/05/14 10:37:46;;;;;;;4.72;1.70;;;25.80;58.80;;;;;;5032902;28;20307;-67
2022/05/14 10:40:28;;;;;;;5.22;1.88;;;25.90;58.40;;;;;;5055206;28;20025;-67
2022/05/14 10:42:54;;;;;;;5.03;1.90;;;26.20;57.60;;;;;;5056070;28;20287;-67
2022/05/14 10:45:23;;;;;;;7.72;1.92;;;26.40;58.00;;;;;;5054734;28;20104;-67
2022/05/14 10:48:09;;;;;;;4.80;1.67;;;27.10;57.00;;;;;;5054859;28;20029;-67
2022/05/14 10:50:38;;;;;;;6.22;1.60;;;26.60;55.70;;;;;;5053915;28;20293;-69
2022/05/14 10:53:06;;;;;;;5.65;1.70;;;26.20;59.00;;;;;;5055878;28;20021;-68
2022/05/14 10:56:03;;;;;;;6.15;1.80;;;26.30;58.20;;;;;;5054010;28;20036;-68
2022/05/14 10:58:45;;;;;;;4.25;1.70;;;25.90;56.80;;;;;;5033234;28;20045;-68
2022/05/14 11:01:49;;;;;;;6.88;1.92;;;25.50;57.30;;;;;;5041987;28;20056;-68
2022/05/14 11:04:36;;;;;;;7.20;2.30;;;25.90;57.40;;;;;;5049792;28;20025;-68
2022/05/14 11:07:11;;;;;;;4.97;1.67;;;25.70;58.60;;;;;;5055708;28;20052;-68
2022/05/14 11:09:44;;;;;;;6.88;1.90;;;25.20;60.20;;;;;;5050108;28;20034;-68
2022/05/14 11:12:19;;;;;;;9.88;1.65;;;25.10;60.10;;;;;;5035750;28;20288;-68
2022/05/14 11:14:47;;;;;;;6.00;1.88;;;24.60;62.20;;;;;;5056654;28;20108;-68
2022/05/14 11:17:34;;;;;;;7.95;2.22;;;25.00;60.20;;;;;;5059377;28;20056;-68
2022/05/14 11:20:08;;;;;;;5.57;1.80;;;24.90;58.80;;;;;;5038460;28;20108;-68
2022/05/14 11:22:49;;;;;;;6.85;1.70;;;24.70;59.00;;;;;;5057302;28;20059;-68
2022/05/14 11:25:25;;;;;;;6.22;1.90;;;24.20;59.70;;;;;;5039626;28;20472;-68
2022/05/14 11:28:17;;;;;;;5.45;1.70;;;24.30;59.30;;;;;;5042532;28;20032;-68
2022/05/14 11:30:50;;;;;;;6.40;1.50;;;24.40;61.90;;;;;;5059396;28;20384;-68
2022/05/14 11:33:27;;;;;;;5.80;2.00;;;24.70;57.90;;;;;;5059532;28;20420;-68
2022/05/14 11:35:59;;;;;;;5.93;1.95;;;24.90;59.20;;;;;;5058306;28;20061;-68
2022/05/14 11:38:24;;;;;;;7.50;2.10;;;25.40;58.00;;;;;;5055908;28;20488;-67
2022/05/14 11:41:06;;;;;;;6.68;1.70;;;25.50;57.90;;;;;;5058436;28;20100;-68
2022/05/14 11:43:43;;;;;;;6.43;1.85;;;25.90;59.30;;;;;;5050212;28;20037;-68
2022/05/14 11:46:29;;;;;;;7.72;1.95;;;25.90;57.30;;;;;;5057422;28;20029;-68
2022/05/14 11:49:02;;;;;;;5.63;1.90;;;25.10;58.70;;;;;;5057009;28;20437;-68
2022/05/14 11:51:57;;;;;;;6.35;2.00;;;24.70;58.10;;;;;;5059191;28;20040;-68
2022/05/14 11:54:38;;;;;;;6.70;1.95;;;24.70;58.70;;;;;;5057402;28;20025;-68
2022/05/14 11:57:27;;;;;;;5.07;1.58;;;25.10;60.00;;;;;;5038988;28;20060;-68
2022/05/14 12:00:08;;;;;;;8.55;2.88;;;25.00;58.80;;;;;;5054902;28;20024;-68
2022/05/14 12:02:56;;;;;;;4.72;1.70;;;25.00;58.30;;;;;;5038629;28;20057;-68
2022/05/14 12:05:40;;;;;;;6.70;1.70;;;25.20;57.80;;;;;;5054421;28;20124;-68
2022/05/14 12:08:28;;;;;;;5.05;1.67;;;25.40;58.90;;;;;;5056765;28;20039;-68
2022/05/14 12:11:19;;;;;;;5.10;1.70;;;24.90;57.40;;;;;;5058947;28;20314;-68
2022/05/14 12:14:04;;;;;;;4.63;1.52;;;24.90;56.10;;;;;;5058756;28;20025;-68
2022/05/14 12:16:39;;;;;;;5.22;1.75;;;24.90;55.80;;;;;;5057588;28;20033;-68
2022/05/14 12:19:16;;;;;;;5.28;1.58;;;25.20;54.80;;;;;;5065020;28;20047;-68
2022/05/14 12:21:43;;;;;;;5.05;1.50;;;26.00;54.60;;;;;;5070669;28;20528;-68
2022/05/14 12:24:53;;;;;;;7.20;2.03;;;26.50;56.40;;;;;;5056847;28;20536;-68
2022/05/14 12:27:19;;;;;;;7.38;1.95;;;26.20;56.80;;;;;;5019237;28;20029;-67
2022/05/14 12:30:11;;;;;;;4.53;1.70;;;25.60;58.40;;;;;;5056669;28;20025;-66
2022/05/14 12:35:32;;;;;;;4.75;1.55;;;24.90;57.60;;;;;;5053826;28;20376;-68
2022/05/14 12:38:00;;;;;;;6.50;1.90;;;25.40;59.60;;;;;;5055272;28;20024;-67
2022/05/14 12:40:30;;;;;;;7.47;2.22;;;25.40;56.60;;;;;;5055587;28;20053;-68
2022/05/14 12:42:58;;;;;;;6.53;1.60;;;25.40;57.10;;;;;;5056001;28;20079;-67
2022/05/14 12:46:05;;;;;;;5.10;1.58;;;25.90;57.10;;;;;;5057374;28;20052;-68
2022/05/14 12:48:31;;;;;;;5.22;1.65;;;26.00;54.50;;;;;;5047318;28;20041;-68
2022/05/14 12:51:02;;;;;;;9.07;1.50;;;26.10;54.20;;;;;;5054560;28;20024;-67
2022/05/14 12:53:36;;;;;;;4.75;1.67;;;26.70;56.30;;;;;;5054640;28;20026;-67
2022/05/14 12:56:03;;;;;;;4.30;1.42;;;26.90;54.20;;;;;;5053790;28;20070;-66
2022/05/14 12:58:32;;;;;;;5.05;1.63;;;26.10;52.60;;;;;;5054986;28;20615;-68
2022/05/14 13:00:58;;;;;;;3.30;1.40;;;25.70;54.30;;;;;;5055602;28;20064;-68
2022/05/14 13:03:30;;;;;;;4.35;1.40;;;25.70;55.10;;;;;;5055403;28;20460;-68
2022/05/14 13:06:17;;;;;;;5.43;1.47;;;26.20;54.10;;;;;;5055603;28;20139;-67
2022/05/14 13:08:49;;;;;;;5.30;1.35;;;26.00;52.60;;;;;;5054578;28;20632;-67
2022/05/14 13:11:24;;;;;;;6.63;1.67;;;25.50;54.50;;;;;;5055257;28;20036;-68
2022/05/14 13:13:53;;;;;;;6.15;1.73;;;25.70;53.60;;;;;;5056442;28;20017;-67
2022/05/14 13:16:41;;;;;;;5.82;1.70;;;25.90;51.90;;;;;;5055509;28;20032;-68
2022/05/14 13:19:33;;;;;;;6.22;1.50;;;26.10;52.20;;;;;;5054730;28;20302;-68
2022/05/14 13:21:59;;;;;;;5.65;1.50;;;26.80;51.40;;;;;;5056811;28;20088;-68
2022/05/14 13:24:32;;;;;;;4.95;1.35;;;26.90;50.80;;;;;;5054373;28;20025;-68
2022/05/14 13:27:01;;;;;;;3.97;1.50;;;27.60;49.70;;;;;;5056109;28;20091;-68
2022/05/14 13:29:33;;;;;;;4.50;1.50;;;28.20;50.20;;;;;;5055044;28;20131;-68
2022/05/14 13:32:22;;;;;;;5.20;1.27;;;28.40;50.20;;;;;;5056270;28;20139;-68
2022/05/14 13:37:41;;;;;;;5.30;1.55;;;28.00;50.20;;;;;;5055916;28;20436;-68
2022/05/14 13:40:21;;;;;;;6.22;1.40;;;28.60;49.10;;;;;;5055285;28;20328;-68